Warning: A non-numeric value encountered in /customers/b/4/5/meteo45.com/httpd.www/station_meteo/wsFunctions.php on line 312 Warning: A non-numeric value encountered in /customers/b/4/5/meteo45.com/httpd.www/station_meteo/wsFunctions.php on line 312
Bienvenue sur la page dédiée à la station météo de Courtenay (Loiret)
Neige/verglas Valable du: 20-11-2018 06:00 Au: 21-11-2018 06:00 Vigilance météorologique pour: Neige/verglas Niveau: Jaune info button

Alerte pour neige et la glace more information rain snow radar


Retrouvez également nos données météorologiques sur:

UK Metoffice

Weather Underground

AWEKAS

Citizen Weather Observer Program (CWOP)



Rapports METAR à proximité

Warning: A non-numeric value encountered in /customers/b/4/5/meteo45.com/httpd.www/station_meteo/metar/wsMetarTxt.php on line 609 Warning: A non-numeric value encountered in /customers/b/4/5/meteo45.com/httpd.www/station_meteo/metar/wsMetarTxt.php on line 609 Warning: A non-numeric value encountered in /customers/b/4/5/meteo45.com/httpd.www/station_meteo/metar/metarDisplay.php on line 166 Warning: A non-numeric value encountered in /customers/b/4/5/meteo45.com/httpd.www/station_meteo/metar/metarDisplay.php on line 166 Warning: A non-numeric value encountered in /customers/b/4/5/meteo45.com/httpd.www/station_meteo/metar/wsMetarTxt.php on line 609
   
LFOJ - Montargis
Mise à jour: 20-11-2018 14:00
Nuageux  
Nuageux  
   Vent: calme
Vent: calme
Température: 3°C
Point de rosée: 0°C
Humidité: 81%
Pression atmosphérique: 1001 hPa
Nuages: Nuageux
Visibilité: Supérieur à 10 km
Nébulosité: Peu de nuages 1200 ft,
Nuageux 2300 ft
LFOJ 201300Z AUTO 00000KT 9999 FEW012 OVC023 03/00 Q1001 NOSIG
LFOJ - Orléans
Mise à jour: 20-11-2018 14:00
Nuageux  
Nuageux  
   Vent: calme
Vent: calme
Température: 3°C
Point de rosée: 0°C
Humidité: 81%
Pression atmosphérique: 1001 hPa
Nuages: Nuageux
Visibilité: Supérieur à 10 km
Nébulosité: Peu de nuages 1200 ft,
Nuageux 2300 ft
LFOJ 201300Z AUTO 00000KT 9999 FEW012 OVC023 03/00 Q1001 NOSIG
LFQB - Sens
Mise à jour: 20-11-2018 14:00
Partiellement nuageux  
Partiellement nuageux  
   Vent: varie 1.9 km/h
Vent: varie 1.9 km/h
Température: 3°C
Point de rosée: 1°C
Humidité: 87%
Pression atmosphérique: 1001 hPa
Nuages: Partiellement nuageux
Visibilité: 9 km
Nébulosité: Peu de nuages 2800 ft,
Partiellement nuageux 23000 ft,
Orage
LFQB 201300Z AUTO VRB01KT 9000 FEW028/// SCT230/// ///TCU 03/01 Q1001
LFQB - Auxerre
Mise à jour: 20-11-2018 14:00
Partiellement nuageux  
Partiellement nuageux  
   Vent: varie 1.9 km/h
Vent: varie 1.9 km/h
Température: 3°C
Point de rosée: 1°C
Humidité: 87%
Pression atmosphérique: 1001 hPa
Nuages: Partiellement nuageux
Visibilité: 9 km
Nébulosité: Peu de nuages 2800 ft,
Partiellement nuageux 23000 ft,
Orage
LFQB 201300Z AUTO VRB01KT 9000 FEW028/// SCT230/// ///TCU 03/01 Q1001
LFPO - Paris
Mise à jour: 20-11-2018 14:00
Pluie faible, Nuageux  
Pluie faible, Nuageux  
   Vent: Est 13 km/h
Vent: Est 13 km/h
Température: 2°C
éolien: -2°C
Point de rosée: 1°C
Humidité: 93%
Pression atmosphérique: 1002 hPa
Nuages: Nuageux
Visibilité: 7 km
Nébulosité: Nuageux 700 ft,
Nuageux 1300 ft
LFPO 201300Z 09007KT 7000 -RA BKN007 BKN013 02/01 Q1002 TEMPO 4000 -RA BKN004
LFLX - Bourges
Mise à jour: 20-11-2018 14:00
Nuageux  
Nuageux  
   Vent: ONO 7.4 km/h
Vent: ONO 7.4 km/h
Température: 4°C
éolien: 2°C
Point de rosée: -1°C
Humidité: 70%
Pression atmosphérique: 1001 hPa
Nuages: Nuageux
Visibilité: Supérieur à 10 km
Nébulosité: Peu de nuages 2100 ft,
Nuageux 3900 ft
LFLX 201300Z AUTO 29004KT 250V320 9999 FEW021 BKN039 04/M01 Q1001 NOSIG

Original script by  Saratoga-weather.org Adapted for the template by  Weerstation Leuven

Matériel utilisé:

Programme Météo
Meteohub

Meteohub